Haysi, Virginia
Current Conditions -  °F | °C
As of 8:35 AM on Monday 22 Dec 2014 (Local Time) from KLNP Reporting Station
Overcast Overcast  
Wind Chill: 40°   Ceiling: 3000
Heat Index: 43°   Visibility: 10mi
Dew Point: 36°   Wind: 5mph
Humidity: 76%   Direction: 150°SSE
Pressure: 30.04"   Gusts: NA
Location:  37.21°N, 82.29°W
Report Text: KLNP 221335Z AUTO 15004KT 10SM BKN030 BKN035 OVC060 06/02 A3004 RMK AO2
Loading
Personal Weather Stations






























Interactive Weather Map New forecast layout! Learn more

10-Day Weather Forecast

Advertisements
Track Severe Weather on mobile